createdAt,value
2023-04-18T00:00:36.297Z,12.77
2023-04-18T00:03:04.586Z,12.50
2023-04-18T00:05:31.412Z,13.18
2023-04-18T00:07:57.732Z,11.57
2023-04-18T00:10:24.088Z,13.05
2023-04-18T00:12:50.412Z,11.57
2023-04-18T00:15:16.741Z,11.82
2023-04-18T00:17:43.136Z,11.20
2023-04-18T00:20:09.702Z,11.55
2023-04-18T00:22:36.772Z,12.57
2023-04-18T00:25:03.186Z,11.45
2023-04-18T00:27:29.497Z,11.48
2023-04-18T00:29:55.832Z,11.48
2023-04-18T00:32:22.155Z,11.73
2023-04-18T00:34:48.605Z,11.90
2023-04-18T00:37:14.931Z,12.65
2023-04-18T00:39:41.201Z,11.80
2023-04-18T00:42:07.486Z,11.75
2023-04-18T00:44:33.818Z,11.70
2023-04-18T00:47:00.162Z,13.00
2023-04-18T00:49:27.436Z,12.02
2023-04-18T00:51:55.745Z,11.98
2023-04-18T00:54:24.198Z,12.35
2023-04-18T00:56:51.191Z,12.40
2023-04-18T00:59:17.637Z,11.80
2023-04-18T01:01:44.033Z,12.40
2023-04-18T01:06:47.436Z,11.88
2023-04-18T01:09:14.080Z,12.43
2023-04-18T01:14:19.531Z,18.87
2023-04-18T01:16:46.629Z,13.63
2023-04-18T01:19:14.181Z,13.75
2023-04-18T01:21:40.497Z,11.10
2023-04-18T01:24:08.447Z,12.25
2023-04-18T01:26:34.776Z,11.15
2023-04-18T01:29:01.086Z,11.30
2023-04-18T01:31:27.422Z,11.88
2023-04-18T01:33:53.810Z,11.88
2023-04-18T01:36:20.140Z,11.70
2023-04-18T01:38:46.490Z,12.43
2023-04-18T01:41:12.827Z,12.32
2023-04-18T01:43:39.121Z,11.30
2023-04-18T01:46:05.460Z,11.43
2023-04-18T01:48:31.865Z,12.30
2023-04-18T01:50:58.371Z,11.48
2023-04-18T01:53:24.681Z,10.70
2023-04-18T01:55:51.015Z,11.50
2023-04-18T01:58:17.299Z,11.65
2023-04-18T02:00:45.492Z,12.20
2023-04-18T02:03:12.007Z,12.02
2023-04-18T02:05:38.948Z,11.95
2023-04-18T02:08:05.275Z,12.45
2023-04-18T02:10:31.600Z,10.82
2023-04-18T02:12:57.905Z,11.48
2023-04-18T02:15:24.505Z,12.25
2023-04-18T02:17:50.881Z,11.25
2023-04-18T02:20:17.398Z,11.30
2023-04-18T02:22:44.004Z,10.65
2023-04-18T02:25:10.348Z,11.48
2023-04-18T02:27:36.664Z,10.65
2023-04-18T02:30:03.462Z,11.40
2023-04-18T02:32:29.762Z,11.52
2023-04-18T02:34:56.071Z,11.85
2023-04-18T02:37:22.360Z,10.98
2023-04-18T02:39:48.671Z,11.15
2023-04-18T02:42:15.004Z,10.32
2023-04-18T02:44:41.332Z,12.20
2023-04-18T02:47:07.657Z,11.57
2023-04-18T02:49:36.321Z,10.88
2023-04-18T02:52:02.657Z,11.20
2023-04-18T02:54:28.947Z,11.90
2023-04-18T02:56:55.394Z,10.80
2023-04-18T02:59:21.953Z,11.60
2023-04-18T03:01:48.373Z,10.45
2023-04-18T03:04:14.961Z,11.23
2023-04-18T03:06:42.963Z,11.15
2023-04-18T03:09:09.277Z,10.45
2023-04-18T03:11:35.573Z,10.30
2023-04-18T03:14:02.022Z,11.75
2023-04-18T03:16:28.571Z,10.75
2023-04-18T03:18:55.060Z,10.65
2023-04-18T03:21:21.387Z,11.60
2023-04-18T03:23:47.687Z,9.82
2023-04-18T03:26:14.280Z,11.05
2023-04-18T03:28:40.643Z,10.38
2023-04-18T03:31:07.245Z,11.02
2023-04-18T03:33:33.556Z,9.95
2023-04-18T03:35:59.848Z,10.95
2023-04-18T03:38:26.198Z,10.68
2023-04-18T03:40:52.524Z,10.50
2023-04-18T03:43:19.564Z,10.30
2023-04-18T03:45:45.999Z,10.98
2023-04-18T03:48:13.058Z,10.05
2023-04-18T03:50:39.496Z,10.70
2023-04-18T03:53:05.845Z,10.80
2023-04-18T03:55:32.665Z,11.75
2023-04-18T03:57:58.985Z,11.55
2023-04-18T04:00:26.040Z,10.88
2023-04-18T04:02:52.558Z,10.90
2023-04-18T04:05:19.121Z,10.75
2023-04-18T04:07:45.510Z,11.25
2023-04-18T04:10:11.802Z,11.18
2023-04-18T04:12:38.177Z,10.93
2023-04-18T04:15:05.034Z,11.52
2023-04-18T04:17:31.370Z,12.10
2023-04-18T04:19:57.675Z,11.30
2023-04-18T04:22:24.040Z,11.20
2023-04-18T04:24:50.391Z,13.20
2023-04-18T04:27:16.787Z,11.48
2023-04-18T04:29:43.111Z,11.35
2023-04-18T04:32:09.591Z,12.50
2023-04-18T04:34:35.977Z,15.35
2023-04-18T04:37:03.216Z,14.80
2023-04-18T04:39:29.631Z,13.95
2023-04-18T04:41:56.450Z,16.20
2023-04-18T04:44:22.787Z,18.35
2023-04-18T04:46:49.126Z,14.57
2023-04-18T04:49:15.500Z,13.00
2023-04-18T04:51:41.804Z,12.82
2023-04-18T04:54:08.123Z,12.65
2023-04-18T04:56:34.482Z,13.25
2023-04-18T04:59:00.809Z,14.05
2023-04-18T05:01:28.835Z,14.75
2023-04-18T05:03:55.284Z,14.73
2023-04-18T05:06:21.809Z,14.00
2023-04-18T05:08:48.865Z,18.40
2023-04-18T05:11:15.585Z,16.70
2023-04-18T05:13:42.306Z,15.82
2023-04-18T05:16:08.811Z,12.93
2023-04-18T05:18:35.253Z,13.15
2023-04-18T05:21:01.624Z,12.02
2023-04-18T05:23:27.958Z,13.52
2023-04-18T05:25:54.379Z,11.63
2023-04-18T05:28:25.173Z,12.52
2023-04-18T05:30:51.555Z,12.95
2023-04-18T05:33:18.123Z,13.00
2023-04-18T05:35:44.512Z,12.48
2023-04-18T05:38:10.858Z,13.95
2023-04-18T05:40:37.189Z,13.38
2023-04-18T05:43:03.496Z,12.48
2023-04-18T05:45:29.826Z,11.98
2023-04-18T05:47:56.184Z,12.27
2023-04-18T05:50:22.517Z,12.50
2023-04-18T05:52:48.843Z,13.32
2023-04-18T05:55:15.180Z,12.07
2023-04-18T05:57:41.527Z,11.77
2023-04-18T06:00:08.374Z,12.55
2023-04-18T06:02:34.814Z,12.35
2023-04-18T06:05:01.594Z,13.90
2023-04-18T06:07:28.149Z,12.70
2023-04-18T06:09:54.488Z,12.25
2023-04-18T06:12:23.169Z,12.60
2023-04-18T06:14:50.015Z,13.32
2023-04-18T06:17:16.427Z,12.23
2023-04-18T06:19:42.757Z,9.43
2023-04-18T06:22:09.066Z,11.82
2023-04-18T06:24:35.453Z,12.18
2023-04-18T06:27:01.857Z,11.75
2023-04-18T06:29:28.266Z,11.90
2023-04-18T06:31:54.589Z,11.25
2023-04-18T06:34:20.925Z,11.32
2023-04-18T06:36:47.301Z,11.52
2023-04-18T06:39:13.600Z,10.52
2023-04-18T06:41:39.894Z,10.73
2023-04-18T06:44:06.216Z,12.20
2023-04-18T06:46:32.959Z,11.27
2023-04-18T06:48:59.500Z,11.85
2023-04-18T06:51:25.920Z,11.40
2023-04-18T06:53:52.290Z,10.57
2023-04-18T06:56:22.352Z,11.88
2023-04-18T06:58:49.383Z,10.65
2023-04-18T07:01:15.726Z,11.30
2023-04-18T07:03:42.136Z,10.68
2023-04-18T07:06:08.673Z,11.15
2023-04-18T07:08:35.569Z,10.77
2023-04-18T07:11:02.038Z,10.20
2023-04-18T07:13:28.390Z,10.20
2023-04-18T07:15:54.891Z,11.02
2023-04-18T07:18:34.078Z,9.95
2023-04-18T07:21:03.468Z,11.85
2023-04-18T07:23:30.147Z,11.10
2023-04-18T07:25:56.637Z,11.00
2023-04-18T07:28:22.952Z,11.18
2023-04-18T07:30:49.309Z,12.02
2023-04-18T07:33:15.686Z,10.65
2023-04-18T07:35:43.272Z,11.02
2023-04-18T07:38:09.604Z,10.52
2023-04-18T07:40:35.959Z,10.55
2023-04-18T07:43:02.263Z,10.18
2023-04-18T07:45:28.769Z,11.23
2023-04-18T07:47:55.134Z,9.75
2023-04-18T07:50:21.581Z,10.27
2023-04-18T07:52:47.906Z,10.48
2023-04-18T07:55:14.528Z,9.73
2023-04-18T07:57:42.900Z,10.73
2023-04-18T08:00:10.084Z,10.27
2023-04-18T08:02:36.574Z,10.60
2023-04-18T08:05:03.405Z,10.48
2023-04-18T08:07:29.903Z,11.35
2023-04-18T08:09:56.211Z,10.98
2023-04-18T08:12:22.559Z,10.00
2023-04-18T08:14:48.849Z,9.35
2023-04-18T08:17:15.266Z,10.18
2023-04-18T08:19:41.556Z,10.48
2023-04-18T08:22:09.444Z,10.38
2023-04-18T08:24:37.473Z,10.88
2023-04-18T08:27:03.992Z,10.50
2023-04-18T08:29:30.273Z,10.50
2023-04-18T08:31:56.654Z,10.55
2023-04-18T08:34:22.996Z,10.05
2023-04-18T08:36:50.795Z,9.98
2023-04-18T08:39:17.351Z,10.50
2023-04-18T08:41:49.835Z,10.18
2023-04-18T08:44:16.682Z,12.77
2023-04-18T08:46:43.020Z,10.30
2023-04-18T08:49:10.753Z,9.55
2023-04-18T08:51:40.220Z,10.48
2023-04-18T08:54:06.629Z,9.50
2023-04-18T08:56:33.025Z,10.00
2023-04-18T08:58:59.434Z,9.77
2023-04-18T09:01:45.602Z,9.55
2023-04-18T09:04:11.991Z,9.15
2023-04-18T09:06:51.600Z,9.90
2023-04-18T09:09:17.924Z,10.50
2023-04-18T09:11:44.270Z,9.05
2023-04-18T09:14:23.964Z,9.60
2023-04-18T09:16:50.328Z,10.23
2023-04-18T09:19:16.888Z,8.90
2023-04-18T09:21:44.175Z,9.43
2023-04-18T09:24:24.399Z,9.55
2023-04-18T09:26:51.255Z,9.25
2023-04-18T09:29:20.450Z,9.27
2023-04-18T09:32:00.261Z,8.93
2023-04-18T09:34:28.341Z,9.38
2023-04-18T09:37:09.144Z,8.68
2023-04-18T09:39:37.447Z,9.85
2023-04-18T09:42:03.869Z,9.52
2023-04-18T09:44:30.169Z,9.10
2023-04-18T09:46:56.621Z,10.10
2023-04-18T09:49:23.679Z,10.23
2023-04-18T09:51:53.178Z,10.07
2023-04-18T09:54:20.057Z,9.68
2023-04-18T09:56:48.021Z,9.60
2023-04-18T09:59:21.442Z,10.25
2023-04-18T10:01:49.430Z,9.82
2023-04-18T10:04:17.553Z,8.70
2023-04-18T10:06:45.661Z,9.30
2023-04-18T10:09:13.665Z,8.77
2023-04-18T10:11:40.422Z,9.35
2023-04-18T10:14:11.294Z,8.73
2023-04-18T10:16:38.397Z,8.68
2023-04-18T10:22:00.969Z,8.90
2023-04-18T10:24:45.529Z,9.68
2023-04-18T10:27:11.871Z,9.23
2023-04-18T10:29:52.168Z,9.95
2023-04-18T10:32:19.793Z,9.00
2023-04-18T10:34:46.677Z,8.73
2023-04-18T10:37:13.425Z,9.85
2023-04-18T10:39:55.630Z,8.90
2023-04-18T10:42:47.625Z,9.13
2023-04-18T10:45:23.716Z,8.80
2023-04-18T10:47:50.767Z,8.85
2023-04-18T10:50:17.490Z,9.25
2023-04-18T10:52:45.580Z,9.45
2023-04-18T10:55:25.963Z,8.63
2023-04-18T10:57:52.321Z,9.68
2023-04-18T11:00:19.189Z,9.27
2023-04-18T11:02:53.907Z,9.82
2023-04-18T11:05:23.046Z,9.43
2023-04-18T11:07:49.550Z,9.82
2023-04-18T11:10:18.861Z,9.55
2023-04-18T11:12:45.547Z,9.85
2023-04-18T11:15:25.340Z,10.32
2023-04-18T11:18:00.555Z,10.45
2023-04-18T11:20:27.272Z,8.82
2023-04-18T11:23:01.242Z,9.07
2023-04-18T11:25:31.066Z,10.63
2023-04-18T11:28:02.600Z,9.52
2023-04-18T11:30:36.289Z,10.82
2023-04-18T11:33:10.985Z,9.10
2023-04-18T11:35:42.502Z,10.00
2023-04-18T11:40:50.783Z,10.05
2023-04-18T11:43:25.658Z,10.32
2023-04-18T11:45:54.175Z,9.90
2023-04-18T11:48:20.590Z,11.90
2023-04-18T11:50:46.935Z,12.02
2023-04-18T11:53:13.235Z,11.27
2023-04-18T11:55:39.538Z,12.32
2023-04-18T11:58:05.890Z,12.57
2023-04-18T12:00:34.909Z,12.13
2023-04-18T12:03:03.014Z,12.13
2023-04-18T12:05:31.014Z,12.48
2023-04-18T12:10:37.839Z,12.32
2023-04-18T12:13:08.566Z,13.38
2023-04-18T12:15:38.796Z,12.05
2023-04-18T12:18:05.974Z,13.50
2023-04-18T12:20:40.174Z,12.38
2023-04-18T12:23:06.708Z,12.70
2023-04-18T12:25:33.196Z,13.35
2023-04-18T12:28:04.198Z,12.35
2023-04-18T12:30:37.427Z,13.20
2023-04-18T12:33:04.455Z,12.82
2023-04-18T12:35:32.351Z,12.15
2023-04-18T12:38:00.709Z,13.30
2023-04-18T12:40:29.855Z,11.73
2023-04-18T12:42:56.375Z,12.20
2023-04-18T12:45:23.805Z,12.32
2023-04-18T12:47:51.919Z,12.45
2023-04-18T12:50:23.965Z,11.15
2023-04-18T12:52:52.422Z,11.77
2023-04-18T12:55:19.180Z,11.48
2023-04-18T12:57:45.535Z,11.18
2023-04-18T13:00:12.726Z,11.73
2023-04-18T13:02:44.481Z,10.40
2023-04-18T13:05:13.923Z,11.15
2023-04-18T13:07:41.221Z,10.35
2023-04-18T13:10:09.425Z,11.07
2023-04-18T13:12:35.868Z,9.48
2023-04-18T13:15:02.257Z,10.05
2023-04-18T13:17:28.599Z,9.45
2023-04-18T13:19:54.973Z,9.60
2023-04-18T13:22:21.430Z,9.32
2023-04-18T13:24:48.118Z,9.32
2023-04-18T13:27:15.374Z,11.27
2023-04-18T13:29:43.018Z,11.13
2023-04-18T13:32:09.755Z,11.15
2023-04-18T13:34:45.005Z,11.95
2023-04-18T13:37:11.913Z,10.80
2023-04-18T13:39:38.729Z,11.82
2023-04-18T13:42:05.111Z,10.25
2023-04-18T13:44:31.507Z,10.52
2023-04-18T13:46:57.889Z,10.35
2023-04-18T13:49:24.252Z,10.52
2023-04-18T13:51:51.539Z,9.90
2023-04-18T13:54:17.841Z,10.35
2023-04-18T13:56:44.164Z,9.82
2023-04-18T13:59:10.511Z,8.93
2023-04-18T14:01:36.944Z,9.02
2023-04-18T14:04:03.763Z,8.30
2023-04-18T14:08:56.365Z,8.65
2023-04-18T14:11:22.916Z,8.50
2023-04-18T14:13:49.230Z,8.63
2023-04-18T14:16:15.687Z,7.97
2023-04-18T14:18:45.863Z,8.25
2023-04-18T14:21:12.193Z,8.80
2023-04-18T14:23:38.503Z,9.20
2023-04-18T14:26:05.238Z,8.55
2023-04-18T14:28:31.517Z,9.45
2023-04-18T14:30:58.000Z,8.73
2023-04-18T14:33:24.418Z,9.63
2023-04-18T14:35:50.723Z,10.20
2023-04-18T14:38:17.126Z,8.90
2023-04-18T14:40:46.693Z,8.63
2023-04-18T14:43:12.996Z,8.45
2023-04-18T14:45:39.296Z,8.88
2023-04-18T14:48:07.858Z,8.63
2023-04-18T14:50:35.131Z,9.38
2023-04-18T14:53:02.310Z,8.60
2023-04-18T14:55:28.641Z,9.93
2023-04-18T14:57:54.968Z,8.32
2023-04-18T15:00:21.361Z,8.93
2023-04-18T15:02:47.881Z,9.07
2023-04-18T15:07:43.714Z,8.30
2023-04-18T15:10:10.467Z,8.23
2023-04-18T15:12:36.812Z,9.40
2023-04-18T15:15:06.718Z,8.77
2023-04-18T15:17:33.148Z,8.45
2023-04-18T15:19:59.865Z,8.20
2023-04-18T15:22:26.189Z,7.57
2023-04-18T15:24:52.503Z,7.68
2023-04-18T15:27:18.803Z,6.68
2023-04-18T15:29:45.104Z,6.30
2023-04-18T15:34:49.118Z,5.75
2023-04-18T15:37:15.454Z,5.18
2023-04-18T15:42:20.332Z,5.93
2023-04-18T15:44:46.625Z,6.35
2023-04-18T15:47:13.532Z,6.10
2023-04-18T15:49:39.853Z,5.88
2023-04-18T15:52:06.199Z,5.65
2023-04-18T15:54:32.804Z,5.20
2023-04-18T15:56:59.218Z,5.65
2023-04-18T15:59:25.546Z,5.03
2023-04-18T16:01:51.831Z,5.53
2023-04-18T16:04:18.374Z,5.72
2023-04-18T16:06:44.793Z,5.00
2023-04-18T16:09:14.195Z,5.30
2023-04-18T16:11:40.504Z,4.80
2023-04-18T16:14:06.844Z,4.68
2023-04-18T16:16:33.240Z,4.85
2023-04-18T16:19:00.235Z,4.28
2023-04-18T16:21:26.698Z,4.70
2023-04-18T16:23:53.002Z,4.25
2023-04-18T16:26:19.426Z,4.30
2023-04-18T16:28:45.737Z,4.15
2023-04-18T16:31:14.355Z,4.10
2023-04-18T16:33:40.720Z,4.25
2023-04-18T16:36:07.181Z,3.90
2023-04-18T16:38:33.488Z,4.43
2023-04-18T16:40:59.813Z,4.00
2023-04-18T16:43:26.248Z,4.32
2023-04-18T16:45:53.528Z,4.55
2023-04-18T16:48:19.877Z,4.20
2023-04-18T16:50:46.170Z,3.80
2023-04-18T16:53:12.542Z,4.55
2023-04-18T16:55:38.835Z,4.80
2023-04-18T16:58:05.151Z,4.30
2023-04-18T17:00:31.459Z,4.70
2023-04-18T17:02:57.819Z,3.80
2023-04-18T17:05:27.470Z,4.70
2023-04-18T17:07:53.814Z,4.32
2023-04-18T17:10:20.492Z,4.15
2023-04-18T17:12:47.539Z,4.57
2023-04-18T17:17:40.140Z,4.20
2023-04-18T17:20:07.230Z,4.82
2023-04-18T17:24:59.883Z,4.72
2023-04-18T17:27:26.231Z,4.28
2023-04-18T17:29:52.514Z,4.03
2023-04-18T17:32:18.898Z,4.10
2023-04-18T17:34:45.350Z,4.22
2023-04-18T17:39:49.356Z,4.55
2023-04-18T17:42:15.651Z,4.38
2023-04-18T17:47:22.135Z,4.82
2023-04-18T17:49:48.500Z,4.18
2023-04-18T17:52:14.879Z,4.38
2023-04-18T17:54:41.194Z,4.47
2023-04-18T17:57:07.497Z,4.63
2023-04-18T17:59:33.840Z,4.80
2023-04-18T18:02:00.203Z,4.60
2023-04-18T18:04:26.990Z,4.38
2023-04-18T18:06:57.547Z,4.50
2023-04-18T18:09:24.073Z,4.15
2023-04-18T18:11:50.374Z,4.60
2023-04-18T18:14:16.754Z,5.07
2023-04-18T18:16:43.718Z,5.20
2023-04-18T18:19:10.058Z,5.65
2023-04-18T18:21:36.491Z,5.45
2023-04-18T18:24:02.985Z,5.75
2023-04-18T18:26:29.526Z,4.68
2023-04-18T18:28:56.000Z,4.22
2023-04-18T18:31:22.363Z,4.40
2023-04-18T18:33:48.878Z,4.75
2023-04-18T18:36:15.195Z,5.00
2023-04-18T18:38:41.504Z,4.00
2023-04-18T18:41:07.869Z,4.43
2023-04-18T18:43:34.478Z,4.50
2023-04-18T18:46:00.843Z,4.60
2023-04-18T18:48:27.938Z,4.38
2023-04-18T18:50:54.296Z,4.43
2023-04-18T18:53:20.724Z,4.85
2023-04-18T18:55:47.066Z,3.78
2023-04-18T18:58:13.388Z,4.50
2023-04-18T19:00:39.694Z,4.50
2023-04-18T19:03:06.107Z,4.72
2023-04-18T19:05:32.502Z,4.53
2023-04-18T19:07:58.870Z,4.40
2023-04-18T19:10:28.024Z,4.05
2023-04-18T19:12:54.330Z,4.75
2023-04-18T19:15:20.717Z,4.57
2023-04-18T19:17:47.072Z,4.13
2023-04-18T19:20:14.603Z,4.18
2023-04-18T19:22:40.889Z,5.60
2023-04-18T19:25:08.273Z,4.60
2023-04-18T19:27:34.629Z,4.68
2023-04-18T19:30:01.004Z,4.43
2023-04-18T19:32:27.340Z,4.93
2023-04-18T19:34:53.698Z,4.75
2023-04-18T19:37:19.996Z,4.78
2023-04-18T19:39:46.332Z,4.60
2023-04-18T19:42:12.647Z,4.55
2023-04-18T19:44:38.950Z,6.32
2023-04-18T19:47:05.276Z,5.50
2023-04-18T19:49:31.563Z,5.15
2023-04-18T19:51:57.886Z,4.43
2023-04-18T19:54:24.207Z,4.82
2023-04-18T19:56:50.728Z,4.50
2023-04-18T19:59:17.171Z,4.50
2023-04-18T20:01:46.559Z,4.57
2023-04-18T20:04:13.043Z,4.68
2023-04-18T20:06:39.472Z,5.18
2023-04-18T20:09:05.950Z,4.45
2023-04-18T20:11:32.486Z,4.95
2023-04-18T20:13:58.788Z,5.13
2023-04-18T20:16:25.208Z,4.53
2023-04-18T20:18:52.995Z,5.47
2023-04-18T20:21:21.066Z,4.57
2023-04-18T20:23:47.377Z,5.10
2023-04-18T20:26:13.711Z,4.80
2023-04-18T20:28:40.064Z,5.45
2023-04-18T20:31:06.402Z,5.28
2023-04-18T20:33:32.743Z,5.22
2023-04-18T20:35:59.039Z,4.72
2023-04-18T20:38:26.355Z,5.28
2023-04-18T20:40:52.744Z,6.22
2023-04-18T20:43:19.291Z,5.20
2023-04-18T20:45:47.683Z,5.30
2023-04-18T20:48:14.027Z,5.97
2023-04-18T20:50:40.312Z,5.93
2023-04-18T20:53:06.618Z,5.90
2023-04-18T20:55:32.924Z,5.50
2023-04-18T20:57:59.280Z,6.35
2023-04-18T21:00:25.657Z,5.53
2023-04-18T21:02:52.157Z,5.05
2023-04-18T21:05:18.606Z,6.20
2023-04-18T21:07:45.829Z,5.45
2023-04-18T21:10:12.283Z,6.15
2023-04-18T21:12:38.615Z,5.97
2023-04-18T21:15:05.522Z,5.68
2023-04-18T21:17:31.887Z,5.95
2023-04-18T21:19:58.195Z,5.50
2023-04-18T21:22:24.481Z,6.05
2023-04-18T21:24:50.761Z,5.60
2023-04-18T21:27:17.096Z,5.82
2023-04-18T21:29:43.470Z,6.47
2023-04-18T21:32:09.753Z,6.47
2023-04-18T21:34:36.045Z,6.10
2023-04-18T21:37:02.442Z,6.15
2023-04-18T21:39:28.792Z,5.95
2023-04-18T21:41:55.132Z,7.25
2023-04-18T21:44:21.474Z,6.72
2023-04-18T21:46:47.751Z,6.15
2023-04-18T21:49:14.142Z,6.80
2023-04-18T21:51:40.437Z,5.88
2023-04-18T21:54:06.802Z,6.22
2023-04-18T21:56:33.128Z,6.70
2023-04-18T21:58:59.433Z,5.93
2023-04-18T22:01:25.776Z,6.00
2023-04-18T22:03:52.228Z,5.97
2023-04-18T22:06:18.720Z,6.20
2023-04-18T22:08:45.034Z,6.00
2023-04-18T22:11:11.302Z,6.43
2023-04-18T22:13:37.623Z,6.97
2023-04-18T22:16:04.247Z,6.13
2023-04-18T22:18:32.961Z,6.05
2023-04-18T22:21:00.359Z,5.15
2023-04-18T22:25:53.783Z,5.40
2023-04-18T22:28:20.596Z,4.93
2023-04-18T22:30:50.993Z,5.43
2023-04-18T22:33:24.996Z,4.97
2023-04-18T22:35:51.377Z,4.65
2023-04-18T22:38:17.725Z,4.85
2023-04-18T22:40:44.027Z,4.95
2023-04-18T22:43:10.398Z,4.10
2023-04-18T22:45:36.702Z,4.57
2023-04-18T22:48:03.227Z,4.78
2023-04-18T22:50:29.593Z,4.55
2023-04-18T22:52:55.984Z,4.20
2023-04-18T22:55:22.304Z,4.20
2023-04-18T22:57:48.623Z,4.55
2023-04-18T23:00:15.236Z,3.90
2023-04-18T23:02:41.725Z,4.35
2023-04-18T23:05:08.635Z,4.47
2023-04-18T23:07:34.925Z,4.22
2023-04-18T23:10:01.277Z,4.28
2023-04-18T23:12:27.586Z,3.92
2023-04-18T23:14:53.910Z,4.40
2023-04-18T23:17:20.733Z,3.85
2023-04-18T23:19:49.679Z,3.97
2023-04-18T23:22:16.236Z,3.97
2023-04-18T23:24:42.560Z,3.78
2023-04-18T23:27:08.871Z,4.10
2023-04-18T23:29:38.695Z,4.90
2023-04-18T23:32:05.721Z,4.30
2023-04-18T23:34:32.237Z,3.85
2023-04-18T23:36:58.812Z,3.92
2023-04-18T23:39:27.845Z,3.83
2023-04-18T23:41:54.198Z,3.78
2023-04-18T23:44:20.503Z,3.90
2023-04-18T23:46:49.646Z,3.75
2023-04-18T23:49:16.337Z,3.85
2023-04-18T23:51:42.693Z,4.10
2023-04-18T23:54:09.086Z,3.58
2023-04-18T23:56:35.483Z,3.53
2023-04-18T23:59:01.801Z,3.65
